Time,TemperatureF,DewpointF,PressureIn,WindDirection,WindDirectionDegrees,WindSpeedMPH,WindSpeedGustMPH,Humidity,HourlyPrecipIn,Conditions,Clouds,dailyrainin,SoftwareType,DateUTC
2013-09-10 00:12:00,79.7,64.0,29.86,ESE,117,0.0,1.0,60,0.00,,,0.00,weatherlink.com 1.10,2013-09-10 05:12:00,
2013-09-10 00:27:00,79.2,65.0,29.86,SE,134,0.0,1.0,61,0.00,,,0.00,weatherlink.com 1.10,2013-09-10 05:27:00,
2013-09-10 00:42:00,78.8,64.0,29.86,SE,129,0.0,1.0,61,0.00,,,0.00,weatherlink.com 1.10,2013-09-10 05:42:00,
2013-09-10 01:19:00,77.7,65.0,29.86,SSE,154,0.0,1.0,64,0.00,,,0.00,weatherlink.com 1.10,2013-09-10 06:19:00,
2013-09-10 01:38:00,77.2,65.0,29.87,SSE,153,0.0,0.0,65,0.00,,,0.00,weatherlink.com 1.10,2013-09-10 06:38:00,
2013-09-10 01:43:00,77.1,64.0,29.87,SSE,152,0.0,0.0,65,0.00,,,0.00,weatherlink.com 1.10,2013-09-10 06:43:00,
2013-09-10 02:19:00,75.8,64.0,29.87,SSW,198,0.0,0.0,67,0.00,,,0.00,weatherlink.com 1.10,2013-09-10 07:19:00,
2013-09-10 02:29:00,75.8,64.0,29.88,SSW,194,0.0,1.0,67,0.00,,,0.00,weatherlink.com 1.10,2013-09-10 07:29:00,
2013-09-10 02:44:00,75.1,64.0,29.88,SSW,193,0.0,0.0,69,0.00,,,0.00,weatherlink.com 1.10,2013-09-10 07:44:00,
2013-09-10 02:58:00,74.0,64.0,29.89,SSW,194,0.0,0.0,72,0.00,,,0.00,weatherlink.com 1.10,2013-09-10 07:58:00,
2013-09-10 03:14:00,73.1,64.0,29.88,SSW,194,0.0,0.0,74,0.00,,,0.00,weatherlink.com 1.10,2013-09-10 08:14:00,
2013-09-10 03:27:00,72.6,64.0,29.88,SSW,193,0.0,0.0,75,0.00,,,0.00,weatherlink.com 1.10,2013-09-10 08:27:00,
2013-09-10 03:42:00,72.5,64.0,29.89,SSW,194,0.0,0.0,75,0.00,,,0.00,weatherlink.com 1.10,2013-09-10 08:42:00,
2013-09-10 03:57:00,72.7,64.0,29.88,SSW,204,0.0,1.0,75,0.00,,,0.00,weatherlink.com 1.10,2013-09-10 08:57:00,
2013-09-10 04:12:00,72.7,64.0,29.89,SSW,204,0.0,0.0,75,0.00,,,0.00,weatherlink.com 1.10,2013-09-10 09:12:00,
2013-09-10 04:29:00,72.3,64.0,29.89,SSW,204,0.0,0.0,76,0.00,,,0.00,weatherlink.com 1.10,2013-09-10 09:29:00,
2013-09-10 04:42:00,71.8,64.0,29.89,SSW,204,0.0,0.0,77,0.00,,,0.00,weatherlink.com 1.10,2013-09-10 09:42:00,
2013-09-10 04:57:00,72.3,65.0,29.89,SE,136,0.0,0.0,77,0.00,,,0.00,weatherlink.com 1.10,2013-09-10 09:57:00,
2013-09-10 05:12:00,73.5,65.0,29.90,ESE,122,0.0,2.0,74,0.00,,,0.00,weatherlink.com 1.10,2013-09-10 10:12:00,
2013-09-10 05:27:00,73.9,65.0,29.90,South,176,0.0,2.0,73,0.00,,,0.00,weatherlink.com 1.10,2013-09-10 10:27:00,
2013-09-10 05:42:00,74.1,65.0,29.90,SSW,194,0.0,1.0,72,0.00,,,0.00,weatherlink.com 1.10,2013-09-10 10:42:00,
2013-09-10 05:57:00,74.2,65.0,29.90,ESE,122,0.0,2.0,72,0.00,,,0.00,weatherlink.com 1.10,2013-09-10 10:57:00,
2013-09-10 06:13:00,74.3,64.0,29.91,SE,144,0.0,3.0,71,0.00,,,0.00,weatherlink.com 1.10,2013-09-10 11:13:00,
2013-09-10 06:28:00,74.2,64.0,29.91,SSE,148,0.0,3.0,71,0.00,,,0.00,weatherlink.com 1.10,2013-09-10 11:28:00,
2013-09-10 06:43:00,74.1,64.0,29.92,South,186,0.0,4.0,71,0.00,,,0.00,weatherlink.com 1.10,2013-09-10 11:43:00,
2013-09-10 07:00:00,73.9,64.0,29.92,ESE,105,2.0,3.0,72,0.00,,,0.00,weatherlink.com 1.10,2013-09-10 12:00:00,
2013-09-10 07:13:00,74.0,64.0,29.93,SSE,154,1.0,4.0,72,0.00,,,0.00,weatherlink.com 1.10,2013-09-10 12:13:00,
2013-09-10 07:28:00,74.2,64.0,29.93,ESE,115,0.0,4.0,71,0.00,,,0.00,weatherlink.com 1.10,2013-09-10 12:28:00,
2013-09-10 07:43:00,74.4,64.0,29.93,ESE,113,3.0,3.0,71,0.00,,,0.00,weatherlink.com 1.10,2013-09-10 12:43:00,
2013-09-10 07:58:00,74.9,65.0,29.94,ESE,113,0.0,5.0,70,0.00,,,0.00,weatherlink.com 1.10,2013-09-10 12:58:00,
2013-09-10 08:13:00,75.7,65.0,29.94,SE,141,0.0,6.0,69,0.00,,,0.00,weatherlink.com 1.10,2013-09-10 13:13:00,
2013-09-10 08:28:00,76.5,65.0,29.94,SE,124,1.0,6.0,68,0.00,,,0.00,weatherlink.com 1.10,2013-09-10 13:28:00,
2013-09-10 08:43:00,77.6,65.0,29.95,SE,127,0.0,5.0,66,0.00,,,0.00,weatherlink.com 1.10,2013-09-10 13:43:00,
2013-09-10 08:58:00,78.5,66.0,29.95,SE,136,0.0,3.0,65,0.00,,,0.00,weatherlink.com 1.10,2013-09-10 13:58:00,
2013-09-10 09:20:00,80.8,66.0,29.95,SE,129,2.0,5.0,61,0.00,,,0.00,weatherlink.com 1.10,2013-09-10 14:20:00,
2013-09-10 09:28:00,82.3,66.0,29.96,ESE,118,1.0,7.0,59,0.00,,,0.00,weatherlink.com 1.10,2013-09-10 14:28:00,
2013-09-10 14:53:00,95.0,66.0,29.92,ESE,112,2.0,9.0,38,0.00,,,0.00,weatherlink.com 1.10,2013-09-10 19:53:00,
2013-09-10 15:01:00,94.7,67.0,29.92,SE,129,0.0,11.0,40,0.00,,,0.00,weatherlink.com 1.10,2013-09-10 20:01:00,
2013-09-10 15:55:00,93.8,65.0,29.91,ESE,107,3.0,12.0,39,0.00,,,0.00,weatherlink.com 1.10,2013-09-10 20:55:00,
2013-09-10 16:16:00,93.6,67.0,29.90,SSE,155,1.0,10.0,41,0.00,,,0.00,weatherlink.com 1.10,2013-09-10 21:16:00,
2013-09-10 17:32:00,92.0,66.0,29.89,ESE,102,0.0,10.0,42,0.00,,,0.00,weatherlink.com 1.10,2013-09-10 22:32:00,
2013-09-10 17:44:00,91.9,66.0,29.89,ESE,111,0.0,4.0,42,0.00,,,0.00,weatherlink.com 1.10,2013-09-10 22:44:00,
2013-09-10 17:59:00,91.7,66.0,29.89,East,100,4.0,9.0,43,0.00,,,0.00,weatherlink.com 1.10,2013-09-10 22:59:00,
2013-09-10 18:14:00,91.3,66.0,29.90,ESE,114,1.0,9.0,43,0.00,,,0.00,weatherlink.com 1.10,2013-09-10 23:14:00,
2013-09-10 18:29:00,90.9,65.0,29.90,ESE,115,3.0,5.0,43,0.00,,,0.00,weatherlink.com 1.10,2013-09-10 23:29:00,
2013-09-10 18:44:00,90.3,66.0,29.90,SE,128,0.0,8.0,44,0.00,,,0.00,weatherlink.com 1.10,2013-09-10 23:44:00,
2013-09-10 19:01:00,89.7,66.0,29.90,SE,124,0.0,6.0,45,0.00,,,0.00,weatherlink.com 1.10,2013-09-11 00:01:00,
2013-09-10 19:18:00,89.2,65.0,29.91,SE,131,1.0,9.0,45,0.00,,,0.00,weatherlink.com 1.10,2013-09-11 00:18:00,
2013-09-10 19:29:00,88.8,65.0,29.91,South,190,1.0,4.0,45,0.00,,,0.00,weatherlink.com 1.10,2013-09-11 00:29:00,
2013-09-10 20:00:00,87.3,65.0,29.92,SE,131,1.0,4.0,48,0.00,,,0.00,weatherlink.com 1.10,2013-09-11 01:00:00,
2013-09-10 20:19:00,86.4,66.0,29.92,South,190,0.0,3.0,50,0.00,,,0.00,weatherlink.com 1.10,2013-09-11 01:19:00,
2013-09-10 20:32:00,85.8,66.0,29.93,South,176,1.0,3.0,51,0.00,,,0.00,weatherlink.com 1.10,2013-09-11 01:32:00,
2013-09-10 20:44:00,85.3,65.0,29.93,SE,131,2.0,4.0,51,0.00,,,0.00,weatherlink.com 1.10,2013-09-11 01:44:00,
2013-09-10 20:59:00,84.8,65.0,29.94,SSW,207,0.0,4.0,52,0.00,,,0.00,weatherlink.com 1.10,2013-09-11 01:59:00,
2013-09-10 21:14:00,84.3,65.0,29.95,SE,127,0.0,3.0,52,0.00,,,0.00,weatherlink.com 1.10,2013-09-11 02:14:00,
2013-09-10 21:29:00,83.8,65.0,29.95,SSW,200,0.0,4.0,53,0.00,,,0.00,weatherlink.com 1.10,2013-09-11 02:29:00,
2013-09-10 22:45:00,81.1,64.0,29.97,ESE,115,2.0,4.0,57,0.00,,,0.00,weatherlink.com 1.10,2013-09-11 03:45:00,
2013-09-10 23:00:00,80.5,64.0,29.98,ESE,111,0.0,4.0,57,0.00,,,0.00,weatherlink.com 1.10,2013-09-11 04:00:00,
2013-09-10 23:15:00,80.2,64.0,29.98,SE,139,1.0,2.0,58,0.00,,,0.00,weatherlink.com 1.10,2013-09-11 04:15:00,
2013-09-10 23:30:00,79.7,64.0,29.98,SE,139,0.0,2.0,58,0.00,,,0.00,weatherlink.com 1.10,2013-09-11 04:30:00,
2013-09-10 23:45:00,79.1,63.0,29.98,SE,128,0.0,3.0,59,0.00,,,0.00,weatherlink.com 1.10,2013-09-11 04:45:00,